メインページ
METAR-TAF:

METAR-TAF

空港 :

ジッダ, サウジアラビア

キング・アブドゥルアズィーズ国際空港

緯度: 21-42N, 経度: 039-11E, 海抜: 15m

現時点の気象観測

当レポートは1時間5分前の04:00(UTC)に作成
の風 3kt
気温 25°C
湿度 89%
気圧 1010 hPa
視程10km以上
1,500メートル以下は雲なし、積乱雲なし

METAR: OEJN 210400Z 35003KT CAVOK 25/23 Q1010 NOSIG

時間: 08:05 (05:05 UTC)

予報

当レポートは6時間5分前の23:00(UTC)に作成
予報は21日の 00時(UTC)から 22日の 06時(UTC)まで有効
変向風 3kt
視程10km以上
1,500メートル以下は雲なし、積乱雲なし
21日の 00時(UTC)から 21日の 05時(UTC)まで一時的に
視程: 4000m
21日の 06時(UTC)から 21日の 08時(UTC)まで徐々に
西の風 12kt
視程10km以上
1,500メートル以下は雲なし、積乱雲なし

TAF: OEJN 202300Z 2100/2206 VRB03KT CAVOK TEMPO 2100/2105 4000 BR BECMG 2106/2108 28012KT CAVOK

4,000以上の空港の気象観測と天気予報(METAR報とTAF報)

利用可能な観測所は地図上に黄色い丸と赤い丸で示す。

丸の上にカーソルを重ねると観測所名を参照できる。

次にクリックすると気象観測と天気予報を参照できる。

マップの切り替え:黒色「×」印の緑ボタンをクリックして拡大、「-」印の緑ボタンをクリックして縮小、緑色の三角印をクリックして隣りの地図に切り替え


METAR-TAF: